sensor_id;sensor_type;location;lat;lon;timestamp;pressure;altitude;pressure_sealevel;temperature;humidity
6423;BME280;3244;42.708;23.288;2023-05-11T00:00:22;95240.94;;;11.18;72.75
6423;BME280;3244;42.708;23.288;2023-05-11T00:02:49;95234.06;;;11.22;72.99
6423;BME280;3244;42.708;23.288;2023-05-11T00:05:16;95236.59;;;11.22;72.95
6423;BME280;3244;42.708;23.288;2023-05-11T00:07:42;95242.50;;;11.22;72.83
6423;BME280;3244;42.708;23.288;2023-05-11T00:10:09;95246.81;;;11.20;72.99
6423;BME280;3244;42.708;23.288;2023-05-11T00:12:38;95237.66;;;11.15;73.37
6423;BME280;3244;42.708;23.288;2023-05-11T00:15:05;95243.19;;;11.03;73.70
6423;BME280;3244;42.708;23.288;2023-05-11T00:17:32;95240.53;;;11.06;73.88
6423;BME280;3244;42.708;23.288;2023-05-11T00:19:59;95241.56;;;11.00;73.70
6423;BME280;3244;42.708;23.288;2023-05-11T00:22:25;95235.72;;;10.97;73.88
6423;BME280;3244;42.708;23.288;2023-05-11T00:24:52;95234.06;;;10.96;74.07
6423;BME280;3244;42.708;23.288;2023-05-11T00:27:19;95240.03;;;10.95;74.03
6423;BME280;3244;42.708;23.288;2023-05-11T00:29:47;95245.47;;;10.84;74.14
6423;BME280;3244;42.708;23.288;2023-05-11T00:32:13;95247.97;;;10.85;73.69
6423;BME280;3244;42.708;23.288;2023-05-11T00:34:40;95241.50;;;10.75;73.98
6423;BME280;3244;42.708;23.288;2023-05-11T00:37:07;95251.13;;;10.66;74.13
6423;BME280;3244;42.708;23.288;2023-05-11T00:39:34;95250.28;;;10.65;74.25
6423;BME280;3244;42.708;23.288;2023-05-11T00:42:04;95249.56;;;10.62;74.00
6423;BME280;3244;42.708;23.288;2023-05-11T00:44:31;95246.28;;;10.58;73.82
6423;BME280;3244;42.708;23.288;2023-05-11T00:47:00;95244.28;;;10.68;73.65
6423;BME280;3244;42.708;23.288;2023-05-11T00:49:26;95258.41;;;10.76;73.05
6423;BME280;3244;42.708;23.288;2023-05-11T00:51:53;95248.53;;;10.67;73.40
6423;BME280;3244;42.708;23.288;2023-05-11T00:54:22;95246.50;;;10.78;72.70
6423;BME280;3244;42.708;23.288;2023-05-11T00:56:48;95251.53;;;10.80;72.78
6423;BME280;3244;42.708;23.288;2023-05-11T00:59:16;95256.03;;;10.72;72.95
6423;BME280;3244;42.708;23.288;2023-05-11T01:01:43;95255.38;;;10.65;73.17
6423;BME280;3244;42.708;23.288;2023-05-11T01:04:11;95253.81;;;10.61;73.48
6423;BME280;3244;42.708;23.288;2023-05-11T01:06:44;95244.22;;;10.69;73.08
6423;BME280;3244;42.708;23.288;2023-05-11T01:09:23;95249.88;;;10.51;73.27
6423;BME280;3244;42.708;23.288;2023-05-11T01:12:02;95247.00;;;10.63;73.23
6423;BME280;3244;42.708;23.288;2023-05-11T01:14:35;95249.41;;;10.66;72.95
6423;BME280;3244;42.708;23.288;2023-05-11T01:17:10;95255.81;;;10.51;73.37
6423;BME280;3244;42.708;23.288;2023-05-11T01:19:46;95251.56;;;10.52;72.99
6423;BME280;3244;42.708;23.288;2023-05-11T01:22:27;95257.41;;;10.54;72.85
6423;BME280;3244;42.708;23.288;2023-05-11T01:25:05;95254.97;;;10.51;73.37
6423;BME280;3244;42.708;23.288;2023-05-11T01:27:47;95256.53;;;10.55;72.97
6423;BME280;3244;42.708;23.288;2023-05-11T01:30:34;95257.69;;;10.45;73.05
6423;BME280;3244;42.708;23.288;2023-05-11T01:33:07;95256.94;;;10.41;73.02
6423;BME280;3244;42.708;23.288;2023-05-11T01:35:38;95261.00;;;10.47;72.94
6423;BME280;3244;42.708;23.288;2023-05-11T01:38:10;95265.03;;;10.54;72.96
6423;BME280;3244;42.708;23.288;2023-05-11T01:40:40;95249.88;;;10.51;72.77
6423;BME280;3244;42.708;23.288;2023-05-11T01:43:08;95246.38;;;10.55;72.51
6423;BME280;3244;42.708;23.288;2023-05-11T01:45:42;95258.28;;;10.53;72.50
6423;BME280;3244;42.708;23.288;2023-05-11T01:48:15;95254.09;;;10.52;72.70
6423;BME280;3244;42.708;23.288;2023-05-11T01:50:43;95272.31;;;10.38;74.16
6423;BME280;3244;42.708;23.288;2023-05-11T01:53:11;95265.44;;;10.40;74.67
6423;BME280;3244;42.708;23.288;2023-05-11T01:55:39;95259.66;;;10.37;74.74
6423;BME280;3244;42.708;23.288;2023-05-11T01:58:08;95264.56;;;10.41;74.66
6423;BME280;3244;42.708;23.288;2023-05-11T02:00:36;95263.03;;;10.37;74.74
6423;BME280;3244;42.708;23.288;2023-05-11T02:03:05;95264.91;;;10.31;75.19
6423;BME280;3244;42.708;23.288;2023-05-11T02:05:34;95260.94;;;10.20;74.97
6423;BME280;3244;42.708;23.288;2023-05-11T02:08:03;95264.78;;;10.35;74.71
6423;BME280;3244;42.708;23.288;2023-05-11T02:10:31;95255.16;;;10.45;74.08
6423;BME280;3244;42.708;23.288;2023-05-11T02:12:59;95263.22;;;10.30;74.12
6423;BME280;3244;42.708;23.288;2023-05-11T02:15:29;95264.72;;;10.37;73.78
6423;BME280;3244;42.708;23.288;2023-05-11T02:17:57;95259.66;;;10.37;73.54
6423;BME280;3244;42.708;23.288;2023-05-11T02:20:25;95256.41;;;10.32;73.51
6423;BME280;3244;42.708;23.288;2023-05-11T02:22:53;95263.06;;;10.36;73.28
6423;BME280;3244;42.708;23.288;2023-05-11T02:25:21;95261.47;;;10.32;72.98
6423;BME280;3244;42.708;23.288;2023-05-11T02:27:49;95252.25;;;10.29;73.06
6423;BME280;3244;42.708;23.288;2023-05-11T02:30:16;95254.66;;;10.34;72.96
6423;BME280;3244;42.708;23.288;2023-05-11T02:32:48;95259.91;;;10.28;72.47
6423;BME280;3244;42.708;23.288;2023-05-11T02:35:20;95255.66;;;10.28;72.58
6423;BME280;3244;42.708;23.288;2023-05-11T02:37:52;95257.41;;;10.26;72.82
6423;BME280;3244;42.708;23.288;2023-05-11T02:40:28;95255.03;;;10.18;73.06
6423;BME280;3244;42.708;23.288;2023-05-11T02:42:58;95251.72;;;10.16;72.72
6423;BME280;3244;42.708;23.288;2023-05-11T02:45:27;95255.13;;;10.15;72.94
6423;BME280;3244;42.708;23.288;2023-05-11T02:47:57;95262.16;;;10.07;73.10
6423;BME280;3244;42.708;23.288;2023-05-11T02:50:24;95260.66;;;10.00;73.83
6423;BME280;3244;42.708;23.288;2023-05-11T02:52:58;95274.31;;;9.96;73.56
6423;BME280;3244;42.708;23.288;2023-05-11T02:55:27;95250.94;;;9.85;73.87
6423;BME280;3244;42.708;23.288;2023-05-11T02:57:54;95249.34;;;9.81;74.23
6423;BME280;3244;42.708;23.288;2023-05-11T03:00:21;95246.09;;;9.76;74.00
6423;BME280;3244;42.708;23.288;2023-05-11T03:02:48;95256.19;;;9.79;74.31
6423;BME280;3244;42.708;23.288;2023-05-11T03:05:15;95256.97;;;9.81;74.50
6423;BME280;3244;42.708;23.288;2023-05-11T03:07:42;95247.84;;;9.74;74.52
6423;BME280;3244;42.708;23.288;2023-05-11T03:10:11;95237.69;;;9.74;74.64
6423;BME280;3244;42.708;23.288;2023-05-11T03:12:37;95245.19;;;9.78;74.46
6423;BME280;3244;42.708;23.288;2023-05-11T03:15:05;95248.56;;;9.79;74.81
6423;BME280;3244;42.708;23.288;2023-05-11T03:17:33;95241.69;;;9.82;74.48
6423;BME280;3244;42.708;23.288;2023-05-11T03:20:01;95248.38;;;9.86;74.65
6423;BME280;3244;42.708;23.288;2023-05-11T03:22:28;95252.84;;;9.77;74.59
6423;BME280;3244;42.708;23.288;2023-05-11T03:24:56;95252.84;;;9.77;74.40
6423;BME280;3244;42.708;23.288;2023-05-11T03:27:24;95256.25;;;9.76;74.61
6423;BME280;3244;42.708;23.288;2023-05-11T03:29:52;95256.97;;;9.81;74.82
6423;BME280;3244;42.708;23.288;2023-05-11T03:32:20;95252.69;;;9.83;74.48
6423;BME280;3244;42.708;23.288;2023-05-11T03:34:46;95267.41;;;9.70;75.09
6423;BME280;3244;42.708;23.288;2023-05-11T03:37:16;95256.19;;;9.79;74.69
6423;BME280;3244;42.708;23.288;2023-05-11T03:39:45;95263.72;;;9.82;74.26
6423;BME280;3244;42.708;23.288;2023-05-11T03:42:13;95258.69;;;9.80;74.65
6423;BME280;3244;42.708;23.288;2023-05-11T03:44:43;95266.53;;;9.71;74.76
6423;BME280;3244;42.708;23.288;2023-05-11T03:47:12;95273.31;;;9.71;74.96
6423;BME280;3244;42.708;23.288;2023-05-11T03:49:41;95263.09;;;9.74;75.09
6423;BME280;3244;42.708;23.288;2023-05-11T03:52:09;95262.91;;;9.80;75.27
6423;BME280;3244;42.708;23.288;2023-05-11T03:54:36;95267.25;;;9.76;75.35
6423;BME280;3244;42.708;23.288;2023-05-11T03:57:03;95272.41;;;9.73;75.47
6423;BME280;3244;42.708;23.288;2023-05-11T03:59:30;95271.25;;;9.85;75.64
6423;BME280;3244;42.708;23.288;2023-05-11T04:01:58;95270.38;;;9.86;75.59
6423;BME280;3244;42.708;23.288;2023-05-11T04:04:27;95271.75;;;9.65;76.44
6423;BME280;3244;42.708;23.288;2023-05-11T04:06:54;95280.13;;;9.69;76.72
6423;BME280;3244;42.708;23.288;2023-05-11T04:09:21;95284.34;;;9.70;76.67
6423;BME280;3244;42.708;23.288;2023-05-11T04:11:47;95266.56;;;9.70;76.49
6423;BME280;3244;42.708;23.288;2023-05-11T04:14:14;95276.78;;;9.67;76.53
6423;BME280;3244;42.708;23.288;2023-05-11T04:16:41;95276.47;;;9.79;76.83
6423;BME280;3244;42.708;23.288;2023-05-11T04:19:09;95278.31;;;9.74;76.49
6423;BME280;3244;42.708;23.288;2023-05-11T04:21:36;95288.53;;;9.71;77.08
6423;BME280;3244;42.708;23.288;2023-05-11T04:24:03;95283.72;;;9.62;77.65
6423;BME280;3244;42.708;23.288;2023-05-11T04:26:30;95284.09;;;9.46;78.14
6423;BME280;3244;42.708;23.288;2023-05-11T04:28:57;95297.44;;;9.54;77.96
6423;BME280;3244;42.708;23.288;2023-05-11T04:31:23;95286.94;;;9.67;78.22
6423;BME280;3244;42.708;23.288;2023-05-11T04:33:50;95296.44;;;9.60;77.96
6423;BME280;3244;42.708;23.288;2023-05-11T04:36:18;95287.06;;;9.64;77.97
6423;BME280;3244;42.708;23.288;2023-05-11T04:38:46;95291.94;;;9.70;78.29
6423;BME280;3244;42.708;23.288;2023-05-11T04:41:13;95292.69;;;9.73;78.15
6423;BME280;3244;42.708;23.288;2023-05-11T04:43:40;95290.19;;;9.72;78.24
6423;BME280;3244;42.708;23.288;2023-05-11T04:46:06;95288.38;;;9.77;78.56
6423;BME280;3244;42.708;23.288;2023-05-11T04:48:33;95289.97;;;9.81;78.18
6423;BME280;3244;42.708;23.288;2023-05-11T04:51:02;95295.28;;;9.72;78.73
6423;BME280;3244;42.708;23.288;2023-05-11T04:53:31;95287.75;;;9.69;78.81
6423;BME280;3244;42.708;23.288;2023-05-11T04:55:57;95289.81;;;9.54;79.38
6423;BME280;3244;42.708;23.288;2023-05-11T04:58:24;95296.13;;;9.72;79.28
6423;BME280;3244;42.708;23.288;2023-05-11T05:00:50;95299.31;;;9.79;78.53
6423;BME280;3244;42.708;23.288;2023-05-11T05:03:17;95303.53;;;9.80;78.58
6423;BME280;3244;42.708;23.288;2023-05-11T05:05:44;95304.47;;;9.76;78.62
6423;BME280;3244;42.708;23.288;2023-05-11T05:08:10;95305.91;;;9.86;78.65
6423;BME280;3244;42.708;23.288;2023-05-11T05:10:38;95299.97;;;9.87;78.42
6423;BME280;3244;42.708;23.288;2023-05-11T05:13:05;95308.75;;;9.74;78.44
6423;BME280;3244;42.708;23.288;2023-05-11T05:15:32;95304.13;;;9.89;78.43
6423;BME280;3244;42.708;23.288;2023-05-11T05:17:58;95310.66;;;9.98;77.81
6423;BME280;3244;42.708;23.288;2023-05-11T05:20:25;95308.09;;;9.98;77.49
6423;BME280;3244;42.708;23.288;2023-05-11T05:22:52;95312.03;;;10.10;77.71
6423;BME280;3244;42.708;23.288;2023-05-11T05:25:19;95322.25;;;10.07;77.47
6423;BME280;3244;42.708;23.288;2023-05-11T05:27:48;95318.22;;;10.00;77.57
6423;BME280;3244;42.708;23.288;2023-05-11T05:30:15;95311.28;;;10.06;78.02
6423;BME280;3244;42.708;23.288;2023-05-11T05:32:42;95312.28;;;10.01;77.75
6423;BME280;3244;42.708;23.288;2023-05-11T05:35:08;95322.47;;;9.99;78.28
6423;BME280;3244;42.708;23.288;2023-05-11T05:37:35;95321.63;;;9.99;78.55
6423;BME280;3244;42.708;23.288;2023-05-11T05:40:02;95315.25;;;10.15;77.98
6423;BME280;3244;42.708;23.288;2023-05-11T05:42:30;95321.00;;;10.23;77.58
6423;BME280;3244;42.708;23.288;2023-05-11T05:44:58;95328.31;;;10.34;77.22
6423;BME280;3244;42.708;23.288;2023-05-11T05:47:24;95324.44;;;10.20;77.22
6423;BME280;3244;42.708;23.288;2023-05-11T05:49:51;95328.00;;;10.13;77.50
6423;BME280;3244;42.708;23.288;2023-05-11T05:52:18;95326.16;;;10.18;77.33
6423;BME280;3244;42.708;23.288;2023-05-11T05:54:44;95330.94;;;10.31;77.05
6423;BME280;3244;42.708;23.288;2023-05-11T05:57:11;95329.34;;;10.27;76.94
6423;BME280;3244;42.708;23.288;2023-05-11T05:59:37;95337.94;;;10.22;77.03
6423;BME280;3244;42.708;23.288;2023-05-11T06:02:05;95337.03;;;10.25;77.05
6423;BME280;3244;42.708;23.288;2023-05-11T06:04:32;95343.84;;;10.23;77.25
6423;BME280;3244;42.708;23.288;2023-05-11T06:06:59;95332.94;;;10.18;77.13
6423;BME280;3244;42.708;23.288;2023-05-11T06:09:26;95342.19;;;10.22;76.89
6423;BME280;3244;42.708;23.288;2023-05-11T06:11:52;95339.19;;;10.39;76.60
6423;BME280;3244;42.708;23.288;2023-05-11T06:14:19;95342.84;;;10.29;76.70
6423;BME280;3244;42.708;23.288;2023-05-11T06:16:47;95339.53;;;10.27;76.78
6423;BME280;3244;42.708;23.288;2023-05-11T06:19:15;95343.88;;;10.21;77.17
6423;BME280;3244;42.708;23.288;2023-05-11T06:21:41;95347.84;;;10.32;76.68
6423;BME280;3244;42.708;23.288;2023-05-11T06:24:10;95350.09;;;10.41;76.47
6423;BME280;3244;42.708;23.288;2023-05-11T06:26:37;95353.31;;;10.47;76.31
6423;BME280;3244;42.708;23.288;2023-05-11T06:29:03;95358.16;;;10.56;75.77
6423;BME280;3244;42.708;23.288;2023-05-11T06:31:30;95354.84;;;10.53;75.99
6423;BME280;3244;42.708;23.288;2023-05-11T06:33:57;95352.47;;;10.47;76.32
6423;BME280;3244;42.708;23.288;2023-05-11T06:36:25;95356.06;;;10.40;76.17
6423;BME280;3244;42.708;23.288;2023-05-11T06:38:51;95362.09;;;10.37;76.27
6423;BME280;3244;42.708;23.288;2023-05-11T06:41:18;95366.59;;;10.28;76.83
6423;BME280;3244;42.708;23.288;2023-05-11T06:43:45;95361.50;;;10.28;76.87
6423;BME280;3244;42.708;23.288;2023-05-11T06:46:12;95347.84;;;10.32;76.49
6423;BME280;3244;42.708;23.288;2023-05-11T06:48:42;95360.78;;;10.53;75.86
6423;BME280;3244;42.708;23.288;2023-05-11T06:51:09;95353.19;;;10.52;75.71
6423;BME280;3244;42.708;23.288;2023-05-11T06:53:37;95360.22;;;10.72;75.54
6423;BME280;3244;42.708;23.288;2023-05-11T06:56:04;95354.16;;;10.48;75.54
6423;BME280;3244;42.708;23.288;2023-05-11T06:58:31;95353.97;;;10.54;75.19
6423;BME280;3244;42.708;23.288;2023-05-11T07:00:58;95353.72;;;10.63;75.30
6423;BME280;3244;42.708;23.288;2023-05-11T07:03:25;95356.47;;;10.85;74.41
6423;BME280;3244;42.708;23.288;2023-05-11T07:05:51;95354.16;;;11.05;73.41
6423;BME280;3244;42.708;23.288;2023-05-11T07:08:18;95355.47;;;11.17;72.34
6423;BME280;3244;42.708;23.288;2023-05-11T07:10:46;95350.19;;;11.23;71.72
6423;BME280;3244;42.708;23.288;2023-05-11T07:13:13;95368.78;;;11.25;71.38
6423;BME280;3244;42.708;23.288;2023-05-11T07:15:39;95370.53;;;11.23;71.22
6423;BME280;3244;42.708;23.288;2023-05-11T07:18:06;95367.84;;;11.28;71.51
6423;BME280;3244;42.708;23.288;2023-05-11T07:20:32;95364.59;;;11.50;70.81
6423;BME280;3244;42.708;23.288;2023-05-11T07:23:00;95361.13;;;11.79;70.40
6423;BME280;3244;42.708;23.288;2023-05-11T07:25:27;95363.13;;;11.95;69.78
6423;BME280;3244;42.708;23.288;2023-05-11T07:27:56;95375.78;;;12.46;68.10
6423;BME280;3244;42.708;23.288;2023-05-11T07:30:22;95370.34;;;12.32;66.83
6423;BME280;3244;42.708;23.288;2023-05-11T07:32:49;95364.63;;;12.25;67.10
6423;BME280;3244;42.708;23.288;2023-05-11T07:35:16;95364.25;;;12.59;67.07
6423;BME280;3244;42.708;23.288;2023-05-11T07:37:42;95360.84;;;12.82;65.73
6423;BME280;3244;42.708;23.288;2023-05-11T07:40:10;95375.75;;;13.14;64.79
6423;BME280;3244;42.708;23.288;2023-05-11T07:42:36;95359.28;;;13.23;63.51
6423;BME280;3244;42.708;23.288;2023-05-11T07:45:05;95365.06;;;13.90;62.11
6423;BME280;3244;42.708;23.288;2023-05-11T07:47:32;95363.31;;;14.11;60.63
6423;BME280;3244;42.708;23.288;2023-05-11T07:49:59;95378.06;;;13.22;62.33
6423;BME280;3244;42.708;23.288;2023-05-11T07:52:25;95389.19;;;12.51;64.18
6423;BME280;3244;42.708;23.288;2023-05-11T07:54:52;95382.81;;;12.14;65.99
6423;BME280;3244;42.708;23.288;2023-05-11T07:57:19;95372.56;;;12.41;65.93
6423;BME280;3244;42.708;23.288;2023-05-11T07:59:45;95371.34;;;12.51;64.85
6423;BME280;3244;42.708;23.288;2023-05-11T08:02:14;95368.63;;;13.01;63.77
6423;BME280;3244;42.708;23.288;2023-05-11T08:04:40;95371.06;;;13.04;63.20
6423;BME280;3244;42.708;23.288;2023-05-11T08:07:07;95371.69;;;13.10;62.52
6423;BME280;3244;42.708;23.288;2023-05-11T08:09:34;95370.03;;;13.31;61.71
6423;BME280;3244;42.708;23.288;2023-05-11T08:12:01;95367.25;;;13.79;60.65
6423;BME280;3244;42.708;23.288;2023-05-11T08:14:28;95366.22;;;13.83;60.08
6423;BME280;3244;42.708;23.288;2023-05-11T08:16:54;95363.03;;;13.99;59.72
6423;BME280;3244;42.708;23.288;2023-05-11T08:19:22;95367.53;;;14.33;58.30
6423;BME280;3244;42.708;23.288;2023-05-11T08:21:49;95377.59;;;14.36;57.52
6423;BME280;3244;42.708;23.288;2023-05-11T08:24:16;95362.38;;;14.14;58.68
6423;BME280;3244;42.708;23.288;2023-05-11T08:26:43;95364.94;;;13.93;59.25
6423;BME280;3244;42.708;23.288;2023-05-11T08:29:09;95360.91;;;14.28;58.29
6423;BME280;3244;42.708;23.288;2023-05-11T08:31:36;95351.75;;;15.00;56.80
6423;BME280;3244;42.708;23.288;2023-05-11T08:34:05;95364.72;;;15.69;54.55
6423;BME280;3244;42.708;23.288;2023-05-11T08:36:33;95371.56;;;15.32;54.50
6423;BME280;3244;42.708;23.288;2023-05-11T08:39:00;95372.97;;;14.64;56.03
6423;BME280;3244;42.708;23.288;2023-05-11T08:41:27;95366.34;;;14.01;58.09
6423;BME280;3244;42.708;23.288;2023-05-11T08:43:56;95366.22;;;14.04;58.62
6423;BME280;3244;42.708;23.288;2023-05-11T08:46:23;95359.41;;;14.62;57.05
6423;BME280;3244;42.708;23.288;2023-05-11T08:48:54;95364.19;;;14.51;57.14
6423;BME280;3244;42.708;23.288;2023-05-11T08:51:21;95362.25;;;14.36;57.62
6423;BME280;3244;42.708;23.288;2023-05-11T08:53:49;95377.59;;;14.36;58.22
6423;BME280;3244;42.708;23.288;2023-05-11T08:56:18;95363.78;;;14.21;58.37
6423;BME280;3244;42.708;23.288;2023-05-11T08:58:46;95351.06;;;13.99;58.68
6423;BME280;3244;42.708;23.288;2023-05-11T09:01:14;95350.91;;;14.43;57.87
6423;BME280;3244;42.708;23.288;2023-05-11T09:03:44;95343.25;;;14.61;57.02
6423;BME280;3244;42.708;23.288;2023-05-11T09:06:11;95348.59;;;14.57;57.45
6423;BME280;3244;42.708;23.288;2023-05-11T09:08:38;95365.50;;;14.20;57.82
6423;BME280;3244;42.708;23.288;2023-05-11T09:11:06;95356.63;;;13.88;58.78
6423;BME280;3244;42.708;23.288;2023-05-11T09:13:34;95365.41;;;13.83;59.72
6423;BME280;3244;42.708;23.288;2023-05-11T09:16:00;95347.88;;;13.74;60.28
6423;BME280;3244;42.708;23.288;2023-05-11T09:18:27;95348.31;;;13.63;60.74
6423;BME280;3244;42.708;23.288;2023-05-11T09:20:54;95344.72;;;13.47;61.36
6423;BME280;3244;42.708;23.288;2023-05-11T09:23:24;95362.28;;;13.34;61.65
6423;BME280;3244;42.708;23.288;2023-05-11T09:25:51;95362.53;;;13.48;61.64
6423;BME280;3244;42.708;23.288;2023-05-11T09:28:21;95357.53;;;14.08;60.22
6423;BME280;3244;42.708;23.288;2023-05-11T09:30:48;95376.09;;;13.91;60.13
6423;BME280;3244;42.708;23.288;2023-05-11T09:33:20;95369.88;;;13.36;62.06
6423;BME280;3244;42.708;23.288;2023-05-11T09:35:48;95356.22;;;13.13;63.22
6423;BME280;3244;42.708;23.288;2023-05-11T09:38:15;95361.06;;;13.21;63.11
6423;BME280;3244;42.708;23.288;2023-05-11T09:40:49;95360.41;;;13.16;63.24
6423;BME280;3244;42.708;23.288;2023-05-11T09:43:18;95361.56;;;13.31;63.70
6423;BME280;3244;42.708;23.288;2023-05-11T09:45:47;95344.03;;;13.63;62.28
6423;BME280;3244;42.708;23.288;2023-05-11T09:48:26;95355.06;;;13.44;62.96
6423;BME280;3244;42.708;23.288;2023-05-11T09:51:04;95352.06;;;13.34;63.12
6423;BME280;3244;42.708;23.288;2023-05-11T09:53:39;95358.16;;;13.30;63.61
6423;BME280;3244;42.708;23.288;2023-05-11T09:56:07;95348.94;;;13.48;62.85
6423;BME280;3244;42.708;23.288;2023-05-11T09:58:48;95341.53;;;13.62;62.55
6423;BME280;3244;42.708;23.288;2023-05-11T10:01:18;95338.56;;;13.73;62.58
6423;BME280;3244;42.708;23.288;2023-05-11T10:03:53;95334.47;;;13.69;62.52
6423;BME280;3244;42.708;23.288;2023-05-11T10:06:20;95334.69;;;13.84;61.87
6423;BME280;3244;42.708;23.288;2023-05-11T10:08:47;95337.47;;;13.58;62.29
6423;BME280;3244;42.708;23.288;2023-05-11T10:11:14;95322.47;;;13.50;63.37
6423;BME280;3244;42.708;23.288;2023-05-11T10:13:42;95327.06;;;13.83;62.38
6423;BME280;3244;42.708;23.288;2023-05-11T10:16:11;95327.44;;;13.74;62.59
6423;BME280;3244;42.708;23.288;2023-05-11T10:18:39;95330.94;;;13.51;62.02
6423;BME280;3244;42.708;23.288;2023-05-11T10:21:08;95310.28;;;13.57;63.19
6423;BME280;3244;42.708;23.288;2023-05-11T10:23:35;95308.78;;;13.92;61.88
6423;BME280;3244;42.708;23.288;2023-05-11T10:26:03;95322.59;;;13.88;61.14
6423;BME280;3244;42.708;23.288;2023-05-11T10:28:30;95314.16;;;13.66;62.25
6423;BME280;3244;42.708;23.288;2023-05-11T10:30:58;95315.63;;;13.71;62.48
6423;BME280;3244;42.708;23.288;2023-05-11T10:33:25;95307.19;;;14.10;61.59
6423;BME280;3244;42.708;23.288;2023-05-11T10:35:53;95320.38;;;14.19;60.43
6423;BME280;3244;42.708;23.288;2023-05-11T10:38:21;95298.13;;;14.21;60.16
6423;BME280;3244;42.708;23.288;2023-05-11T10:40:50;95299.00;;;14.41;60.14
6423;BME280;3244;42.708;23.288;2023-05-11T10:44:01;95285.25;;;13.85;61.59
6423;BME280;3244;42.708;23.288;2023-05-11T10:46:40;95293.81;;;13.84;61.15
6423;BME280;3244;42.708;23.288;2023-05-11T10:49:20;95294.63;;;13.85;62.29
6423;BME280;3244;42.708;23.288;2023-05-11T10:52:13;95290.03;;;14.12;61.49
6423;BME280;3244;42.708;23.288;2023-05-11T10:54:53;95303.63;;;14.33;60.18
6423;BME280;3244;42.708;23.288;2023-05-11T10:57:35;95297.88;;;14.27;60.43
6423;BME280;3244;42.708;23.288;2023-05-11T11:00:14;95297.81;;;14.29;59.94
6423;BME280;3244;42.708;23.288;2023-05-11T11:02:55;95293.81;;;14.61;59.28
6423;BME280;3244;42.708;23.288;2023-05-11T11:05:32;95286.81;;;15.02;57.85
6423;BME280;3244;42.708;23.288;2023-05-11T11:08:01;95285.00;;;15.04;57.08
6423;BME280;3244;42.708;23.288;2023-05-11T11:10:30;95286.16;;;14.80;57.84
6423;BME280;3244;42.708;23.288;2023-05-11T11:13:01;95282.84;;;15.31;57.45
6423;BME280;3244;42.708;23.288;2023-05-11T11:18:29;95290.84;;;15.77;55.87
6423;BME280;3244;42.708;23.288;2023-05-11T11:20:58;95287.06;;;15.32;56.43
6423;BME280;3244;42.708;23.288;2023-05-11T11:23:43;95285.84;;;15.39;57.31
6423;BME280;3244;42.708;23.288;2023-05-11T11:26:12;95293.38;;;15.42;56.47
6423;BME280;3244;42.708;23.288;2023-05-11T11:29:06;95277.28;;;15.75;56.04
6423;BME280;3244;42.708;23.288;2023-05-11T11:31:33;95277.81;;;16.14;55.32
6423;BME280;3244;42.708;23.288;2023-05-11T11:34:31;95270.97;;;15.64;55.84
6423;BME280;3244;42.708;23.288;2023-05-11T11:37:05;95271.25;;;15.41;56.85
6423;BME280;3244;42.708;23.288;2023-05-11T11:39:48;95270.91;;;14.95;57.27
6423;BME280;3244;42.708;23.288;2023-05-11T11:42:18;95274.41;;;14.76;58.12
6423;BME280;3244;42.708;23.288;2023-05-11T11:45:28;95290.53;;;14.39;59.30
6423;BME280;3244;42.708;23.288;2023-05-11T11:48:15;95284.59;;;14.19;59.79
6423;BME280;3244;42.708;23.288;2023-05-11T11:50:44;95276.88;;;14.21;59.72
6423;BME280;3244;42.708;23.288;2023-05-11T11:56:42;95271.63;;;14.80;57.95
6423;BME280;3244;42.708;23.288;2023-05-11T11:59:11;95271.34;;;14.68;57.80
6423;BME280;3244;42.708;23.288;2023-05-11T12:01:41;95266.78;;;14.74;58.47
6423;BME280;3244;42.708;23.288;2023-05-11T12:04:16;95261.56;;;15.12;57.90
6423;BME280;3244;42.708;23.288;2023-05-11T12:06:54;95260.69;;;15.13;57.75
6423;BME280;3244;42.708;23.288;2023-05-11T12:09:22;95271.19;;;14.89;58.07
6423;BME280;3244;42.708;23.288;2023-05-11T12:11:51;95272.75;;;14.75;57.80
6423;BME280;3244;42.708;23.288;2023-05-11T12:14:19;95263.75;;;14.66;58.60
6423;BME280;3244;42.708;23.288;2023-05-11T12:17:00;95260.34;;;14.84;58.68
6423;BME280;3244;42.708;23.288;2023-05-11T12:19:27;95263.22;;;14.95;57.87
6423;BME280;3244;42.708;23.288;2023-05-11T12:21:55;95254.44;;;14.46;59.15
6423;BME280;3244;42.708;23.288;2023-05-11T12:24:22;95254.41;;;14.27;59.60
6423;BME280;3244;42.708;23.288;2023-05-11T12:26:54;95242.28;;;14.51;59.33
6423;BME280;3244;42.708;23.288;2023-05-11T12:29:20;95246.22;;;14.94;58.55
6423;BME280;3244;42.708;23.288;2023-05-11T12:31:47;95246.69;;;15.37;56.99
6423;BME280;3244;42.708;23.288;2023-05-11T12:34:14;95252.97;;;15.31;56.17
6423;BME280;3244;42.708;23.288;2023-05-11T12:36:43;95236.59;;;15.00;57.42
6423;BME280;3244;42.708;23.288;2023-05-11T12:39:15;95235.28;;;14.91;58.25
6423;BME280;3244;42.708;23.288;2023-05-11T12:41:43;95231.38;;;14.84;59.08
6423;BME280;3244;42.708;23.288;2023-05-11T12:44:11;95228.34;;;14.76;58.63
6423;BME280;3244;42.708;23.288;2023-05-11T12:46:40;95226.88;;;14.53;59.32
6423;BME280;3244;42.708;23.288;2023-05-11T12:49:08;95226.28;;;14.65;59.55
6423;BME280;3244;42.708;23.288;2023-05-11T12:51:48;95230.13;;;14.56;58.89
6423;BME280;3244;42.708;23.288;2023-05-11T12:54:29;95240.06;;;14.44;60.06
6423;BME280;3244;42.708;23.288;2023-05-11T12:56:57;95225.31;;;14.11;60.04
6423;BME280;3244;42.708;23.288;2023-05-11T12:59:35;95222.28;;;14.03;60.12
6423;BME280;3244;42.708;23.288;2023-05-11T13:02:07;95216.06;;;14.27;60.00
6423;BME280;3244;42.708;23.288;2023-05-11T13:04:35;95222.22;;;14.23;59.40
6423;BME280;3244;42.708;23.288;2023-05-11T13:07:02;95212.97;;;14.21;59.94
6423;BME280;3244;42.708;23.288;2023-05-11T13:09:29;95210.00;;;14.30;59.68
6423;BME280;3244;42.708;23.288;2023-05-11T13:12:10;95199.84;;;14.28;59.22
6423;BME280;3244;42.708;23.288;2023-05-11T13:14:38;95214.97;;;14.14;59.53
6423;BME280;3244;42.708;23.288;2023-05-11T13:17:05;95209.69;;;13.80;60.96
6423;BME280;3244;42.708;23.288;2023-05-11T13:19:32;95201.47;;;13.92;60.70
6423;BME280;3244;42.708;23.288;2023-05-11T13:21:59;95209.50;;;14.03;60.12
6423;BME280;3244;42.708;23.288;2023-05-11T13:24:26;95210.53;;;13.99;59.98
6423;BME280;3244;42.708;23.288;2023-05-11T13:26:53;95208.06;;;14.16;59.86
6423;BME280;3244;42.708;23.288;2023-05-11T13:29:21;95210.28;;;14.05;59.93